sensor_id;sensor_type;location;lat;lon;timestamp;P1;durP1;ratioP1;P2;durP2;ratioP2
41167;SDS011;26906;45.658;9.272;2023-09-12T05:35:30;33.17;;;29.65;;
41167;SDS011;26906;45.658;9.272;2023-09-12T05:37:57;38.65;;;30.75;;
41167;SDS011;26906;45.658;9.272;2023-09-12T05:40:26;33.15;;;29.23;;
41167;SDS011;26906;45.658;9.272;2023-09-12T05:42:51;33.08;;;27.45;;
41167;SDS011;26906;45.658;9.272;2023-09-12T05:45:17;33.65;;;30.02;;
41167;SDS011;26906;45.658;9.272;2023-09-12T05:47:43;29.65;;;26.50;;
41167;SDS011;26906;45.658;9.272;2023-09-12T05:50:08;31.27;;;25.90;;
41167;SDS011;26906;45.658;9.272;2023-09-12T05:52:34;31.55;;;26.23;;
41167;SDS011;26906;45.658;9.272;2023-09-12T05:55:00;27.92;;;24.92;;
41167;SDS011;26906;45.658;9.272;2023-09-12T05:57:26;31.98;;;26.52;;
41167;SDS011;26906;45.658;9.272;2023-09-12T05:59:52;29.73;;;26.58;;
41167;SDS011;26906;45.658;9.272;2023-09-12T06:02:18;29.92;;;26.73;;
41167;SDS011;26906;45.658;9.272;2023-09-12T06:04:44;31.35;;;25.00;;
41167;SDS011;26906;45.658;9.272;2023-09-12T06:07:10;32.13;;;24.35;;
41167;SDS011;26906;45.658;9.272;2023-09-12T06:09:36;28.58;;;24.88;;
41167;SDS011;26906;45.658;9.272;2023-09-12T06:12:02;28.55;;;25.63;;
41167;SDS011;26906;45.658;9.272;2023-09-12T06:14:28;26.95;;;24.05;;
41167;SDS011;26906;45.658;9.272;2023-09-12T06:16:54;32.72;;;25.55;;
41167;SDS011;26906;45.658;9.272;2023-09-12T06:19:19;30.23;;;25.25;;
41167;SDS011;26906;45.658;9.272;2023-09-12T06:21:45;28.40;;;25.33;;
41167;SDS011;26906;45.658;9.272;2023-09-12T06:24:12;30.75;;;25.55;;
41167;SDS011;26906;45.658;9.272;2023-09-12T06:26:39;29.85;;;25.23;;
41167;SDS011;26906;45.658;9.272;2023-09-12T06:29:05;33.50;;;27.10;;
41167;SDS011;26906;45.658;9.272;2023-09-12T06:31:33;30.75;;;25.77;;
41167;SDS011;26906;45.658;9.272;2023-09-12T06:33:59;30.38;;;24.63;;
41167;SDS011;26906;45.658;9.272;2023-09-12T06:36:25;28.73;;;25.02;;
41167;SDS011;26906;45.658;9.272;2023-09-12T06:38:51;27.00;;;24.08;;
41167;SDS011;26906;45.658;9.272;2023-09-12T06:41:20;28.88;;;22.55;;
41167;SDS011;26906;45.658;9.272;2023-09-12T06:43:46;28.42;;;21.30;;
41167;SDS011;26906;45.658;9.272;2023-09-12T06:46:12;31.52;;;23.13;;
41167;SDS011;26906;45.658;9.272;2023-09-12T06:48:38;25.10;;;22.40;;
41167;SDS011;26906;45.658;9.272;2023-09-12T06:51:04;26.60;;;22.20;;
41167;SDS011;26906;45.658;9.272;2023-09-12T06:53:31;23.33;;;20.83;;
41167;SDS011;26906;45.658;9.272;2023-09-12T06:55:57;26.48;;;19.55;;
41167;SDS011;26906;45.658;9.272;2023-09-12T06:58:24;22.60;;;20.30;;
41167;SDS011;26906;45.658;9.272;2023-09-12T07:00:50;26.25;;;20.95;;
41167;SDS011;26906;45.658;9.272;2023-09-12T07:03:15;23.55;;;21.00;;
41167;SDS011;26906;45.658;9.272;2023-09-12T07:05:42;29.95;;;23.35;;
41167;SDS011;26906;45.658;9.272;2023-09-12T07:08:08;25.60;;;22.85;;
41167;SDS011;26906;45.658;9.272;2023-09-12T07:10:33;27.88;;;23.05;;
41167;SDS011;26906;45.658;9.272;2023-09-12T07:13:00;25.77;;;21.05;;
41167;SDS011;26906;45.658;9.272;2023-09-12T07:15:26;25.02;;;19.50;;
41167;SDS011;26906;45.658;9.272;2023-09-12T07:17:52;27.40;;;20.83;;
41167;SDS011;26906;45.658;9.272;2023-09-12T07:20:18;24.88;;;21.20;;
41167;SDS011;26906;45.658;9.272;2023-09-12T07:22:45;28.73;;;21.40;;
41167;SDS011;26906;45.658;9.272;2023-09-12T07:25:15;26.15;;;20.92;;
41167;SDS011;26906;45.658;9.272;2023-09-12T07:27:41;28.48;;;20.15;;
41167;SDS011;26906;45.658;9.272;2023-09-12T07:30:07;24.27;;;20.30;;
41167;SDS011;26906;45.658;9.272;2023-09-12T07:32:33;25.15;;;19.95;;
41167;SDS011;26906;45.658;9.272;2023-09-12T07:35:00;24.92;;;21.60;;
41167;SDS011;26906;45.658;9.272;2023-09-12T07:37:27;27.60;;;19.98;;
41167;SDS011;26906;45.658;9.272;2023-09-12T07:39:53;23.73;;;20.58;;
41167;SDS011;26906;45.658;9.272;2023-09-12T07:42:24;22.50;;;20.17;;
41167;SDS011;26906;45.658;9.272;2023-09-12T07:44:50;23.45;;;21.02;;
41167;SDS011;26906;45.658;9.272;2023-09-12T07:47:16;23.20;;;20.70;;
41167;SDS011;26906;45.658;9.272;2023-09-12T07:49:42;24.70;;;21.70;;
41167;SDS011;26906;45.658;9.272;2023-09-12T07:52:07;22.38;;;19.98;;
41167;SDS011;26906;45.658;9.272;2023-09-12T07:54:33;20.27;;;17.05;;
41167;SDS011;26906;45.658;9.272;2023-09-12T07:56:59;19.70;;;16.73;;
41167;SDS011;26906;45.658;9.272;2023-09-12T07:59:25;25.27;;;16.92;;
41167;SDS011;26906;45.658;9.272;2023-09-12T08:01:50;23.67;;;18.25;;
41167;SDS011;26906;45.658;9.272;2023-09-12T08:04:16;24.48;;;16.38;;
41167;SDS011;26906;45.658;9.272;2023-09-12T08:06:42;21.13;;;18.30;;
41167;SDS011;26906;45.658;9.272;2023-09-12T08:09:09;19.88;;;17.77;;
41167;SDS011;26906;45.658;9.272;2023-09-12T08:11:37;17.65;;;15.00;;
41167;SDS011;26906;45.658;9.272;2023-09-12T08:14:03;21.95;;;16.95;;
41167;SDS011;26906;45.658;9.272;2023-09-12T08:16:28;19.48;;;16.70;;
41167;SDS011;26906;45.658;9.272;2023-09-12T08:18:56;18.80;;;16.10;;
41167;SDS011;26906;45.658;9.272;2023-09-12T08:21:21;18.35;;;16.35;;
41167;SDS011;26906;45.658;9.272;2023-09-12T08:23:48;17.92;;;15.95;;
41167;SDS011;26906;45.658;9.272;2023-09-12T08:26:14;19.58;;;17.55;;
41167;SDS011;26906;45.658;9.272;2023-09-12T08:28:40;20.83;;;18.63;;
41167;SDS011;26906;45.658;9.272;2023-09-12T08:31:05;20.58;;;17.02;;
41167;SDS011;26906;45.658;9.272;2023-09-12T08:33:31;22.17;;;18.27;;
41167;SDS011;26906;45.658;9.272;2023-09-12T08:35:57;20.80;;;16.88;;
41167;SDS011;26906;45.658;9.272;2023-09-12T08:38:23;27.10;;;21.10;;
41167;SDS011;26906;45.658;9.272;2023-09-12T08:40:49;23.23;;;19.52;;
41167;SDS011;26906;45.658;9.272;2023-09-12T08:43:16;19.73;;;15.43;;
41167;SDS011;26906;45.658;9.272;2023-09-12T08:45:42;24.15;;;21.58;;
41167;SDS011;26906;45.658;9.272;2023-09-12T08:48:11;25.05;;;20.00;;
41167;SDS011;26906;45.658;9.272;2023-09-12T08:50:38;24.60;;;18.15;;
41167;SDS011;26906;45.658;9.272;2023-09-12T08:53:04;31.13;;;20.30;;
41167;SDS011;26906;45.658;9.272;2023-09-12T08:55:33;25.75;;;19.30;;
41167;SDS011;26906;45.658;9.272;2023-09-12T08:58:03;21.27;;;17.52;;
41167;SDS011;26906;45.658;9.272;2023-09-12T09:00:30;21.30;;;18.00;;
41167;SDS011;26906;45.658;9.272;2023-09-12T09:02:56;23.95;;;20.00;;
41167;SDS011;26906;45.658;9.272;2023-09-12T09:05:22;22.42;;;19.00;;
41167;SDS011;26906;45.658;9.272;2023-09-12T09:07:50;21.33;;;17.90;;
41167;SDS011;26906;45.658;9.272;2023-09-12T09:10:17;26.38;;;20.42;;
41167;SDS011;26906;45.658;9.272;2023-09-12T09:12:44;29.45;;;21.08;;
41167;SDS011;26906;45.658;9.272;2023-09-12T09:15:24;20.42;;;18.42;;
41167;SDS011;26906;45.658;9.272;2023-09-12T09:17:51;22.05;;;17.08;;
41167;SDS011;26906;45.658;9.272;2023-09-12T09:20:25;21.45;;;16.48;;
41167;SDS011;26906;45.658;9.272;2023-09-12T09:25:38;20.35;;;16.83;;
41167;SDS011;26906;45.658;9.272;2023-09-12T09:28:07;23.65;;;18.45;;
41167;SDS011;26906;45.658;9.272;2023-09-12T09:30:45;23.13;;;19.60;;
41167;SDS011;26906;45.658;9.272;2023-09-12T09:33:12;21.52;;;17.73;;
41167;SDS011;26906;45.658;9.272;2023-09-12T09:35:42;18.90;;;16.38;;
41167;SDS011;26906;45.658;9.272;2023-09-12T09:38:12;17.98;;;15.52;;
41167;SDS011;26906;45.658;9.272;2023-09-12T09:40:41;18.90;;;15.07;;
41167;SDS011;26906;45.658;9.272;2023-09-12T09:43:08;20.50;;;17.35;;
41167;SDS011;26906;45.658;9.272;2023-09-12T09:45:41;22.45;;;15.93;;
41167;SDS011;26906;45.658;9.272;2023-09-12T09:48:10;25.33;;;16.60;;
41167;SDS011;26906;45.658;9.272;2023-09-12T09:50:43;18.33;;;14.98;;
41167;SDS011;26906;45.658;9.272;2023-09-12T09:53:09;17.45;;;14.15;;
41167;SDS011;26906;45.658;9.272;2023-09-12T09:55:35;19.48;;;17.52;;
41167;SDS011;26906;45.658;9.272;2023-09-12T09:58:01;22.35;;;18.65;;
41167;SDS011;26906;45.658;9.272;2023-09-12T10:00:34;18.60;;;16.58;;
41167;SDS011;26906;45.658;9.272;2023-09-12T10:03:03;20.38;;;18.08;;
41167;SDS011;26906;45.658;9.272;2023-09-12T10:05:33;22.48;;;18.00;;
41167;SDS011;26906;45.658;9.272;2023-09-12T10:08:03;26.83;;;19.00;;
41167;SDS011;26906;45.658;9.272;2023-09-12T10:10:34;21.83;;;17.08;;
41167;SDS011;26906;45.658;9.272;2023-09-12T10:13:03;23.25;;;18.08;;
41167;SDS011;26906;45.658;9.272;2023-09-12T10:15:31;21.10;;;18.00;;
41167;SDS011;26906;45.658;9.272;2023-09-12T10:17:59;23.85;;;19.55;;
41167;SDS011;26906;45.658;9.272;2023-09-12T10:20:45;21.35;;;17.38;;
41167;SDS011;26906;45.658;9.272;2023-09-12T10:23:27;20.02;;;17.85;;
41167;SDS011;26906;45.658;9.272;2023-09-12T10:26:09;23.10;;;17.92;;
41167;SDS011;26906;45.658;9.272;2023-09-12T10:28:39;23.33;;;18.77;;
41167;SDS011;26906;45.658;9.272;2023-09-12T10:31:06;21.92;;;18.75;;
41167;SDS011;26906;45.658;9.272;2023-09-12T10:33:34;22.83;;;18.80;;
41167;SDS011;26906;45.658;9.272;2023-09-12T10:36:01;21.63;;;18.23;;
41167;SDS011;26906;45.658;9.272;2023-09-12T10:38:29;20.40;;;14.85;;
41167;SDS011;26906;45.658;9.272;2023-09-12T10:40:58;19.80;;;16.08;;
41167;SDS011;26906;45.658;9.272;2023-09-12T10:43:26;21.50;;;18.30;;
41167;SDS011;26906;45.658;9.272;2023-09-12T10:45:53;22.15;;;17.40;;
41167;SDS011;26906;45.658;9.272;2023-09-12T10:48:19;19.58;;;15.43;;
41167;SDS011;26906;45.658;9.272;2023-09-12T10:50:45;21.92;;;14.90;;
41167;SDS011;26906;45.658;9.272;2023-09-12T10:53:13;18.17;;;15.50;;
41167;SDS011;26906;45.658;9.272;2023-09-12T10:55:56;21.58;;;19.42;;
41167;SDS011;26906;45.658;9.272;2023-09-12T10:58:32;31.35;;;22.27;;
41167;SDS011;26906;45.658;9.272;2023-09-12T11:01:21;27.58;;;20.50;;
41167;SDS011;26906;45.658;9.272;2023-09-12T11:03:46;24.95;;;19.75;;
41167;SDS011;26906;45.658;9.272;2023-09-12T11:06:28;25.63;;;18.10;;
41167;SDS011;26906;45.658;9.272;2023-09-12T11:09:28;23.75;;;20.52;;
41167;SDS011;26906;45.658;9.272;2023-09-12T11:11:47;24.88;;;22.27;;
41167;SDS011;26906;45.658;9.272;2023-09-12T11:14:14;26.08;;;19.88;;
41167;SDS011;26906;45.658;9.272;2023-09-12T11:16:41;26.40;;;20.05;;
41167;SDS011;26906;45.658;9.272;2023-09-12T11:19:14;26.00;;;23.10;;
41167;SDS011;26906;45.658;9.272;2023-09-12T11:21:54;22.10;;;19.50;;
41167;SDS011;26906;45.658;9.272;2023-09-12T11:24:21;20.20;;;17.23;;
41167;SDS011;26906;45.658;9.272;2023-09-12T11:29:34;22.92;;;15.98;;
41167;SDS011;26906;45.658;9.272;2023-09-12T11:32:02;17.90;;;14.43;;
41167;SDS011;26906;45.658;9.272;2023-09-12T11:34:29;16.92;;;12.52;;
41167;SDS011;26906;45.658;9.272;2023-09-12T11:37:00;15.50;;;11.43;;
41167;SDS011;26906;45.658;9.272;2023-09-12T11:39:32;15.63;;;11.30;;
41167;SDS011;26906;45.658;9.272;2023-09-12T11:42:00;16.73;;;10.02;;
41167;SDS011;26906;45.658;9.272;2023-09-12T11:44:27;11.13;;;9.95;;
41167;SDS011;26906;45.658;9.272;2023-09-12T11:46:53;16.20;;;9.30;;
41167;SDS011;26906;45.658;9.272;2023-09-12T11:49:20;10.75;;;8.77;;
41167;SDS011;26906;45.658;9.272;2023-09-12T11:51:52;13.00;;;8.85;;
41167;SDS011;26906;45.658;9.272;2023-09-12T11:54:19;10.73;;;9.27;;
41167;SDS011;26906;45.658;9.272;2023-09-12T11:56:49;10.20;;;8.73;;
41167;SDS011;26906;45.658;9.272;2023-09-12T11:59:21;12.35;;;9.65;;
41167;SDS011;26906;45.658;9.272;2023-09-12T12:01:48;11.90;;;9.32;;
41167;SDS011;26906;45.658;9.272;2023-09-12T12:04:16;12.00;;;9.52;;
41167;SDS011;26906;45.658;9.272;2023-09-12T12:06:42;14.82;;;9.02;;
41167;SDS011;26906;45.658;9.272;2023-09-12T12:09:09;10.30;;;9.13;;
41167;SDS011;26906;45.658;9.272;2023-09-12T12:11:35;13.57;;;7.75;;
41167;SDS011;26906;45.658;9.272;2023-09-12T12:14:10;16.05;;;8.73;;
41167;SDS011;26906;45.658;9.272;2023-09-12T12:16:40;14.73;;;8.15;;
41167;SDS011;26906;45.658;9.272;2023-09-12T12:19:10;9.13;;;8.25;;
41167;SDS011;26906;45.658;9.272;2023-09-12T12:21:40;10.63;;;7.85;;
41167;SDS011;26906;45.658;9.272;2023-09-12T12:24:15;13.50;;;9.48;;
41167;SDS011;26906;45.658;9.272;2023-09-12T12:26:42;11.77;;;8.23;;
41167;SDS011;26906;45.658;9.272;2023-09-12T12:29:08;13.90;;;8.52;;
41167;SDS011;26906;45.658;9.272;2023-09-12T12:31:35;14.30;;;8.82;;
41167;SDS011;26906;45.658;9.272;2023-09-12T12:34:02;9.63;;;8.13;;
41167;SDS011;26906;45.658;9.272;2023-09-12T12:36:40;10.05;;;8.15;;
41167;SDS011;26906;45.658;9.272;2023-09-12T12:39:09;11.85;;;7.63;;
41167;SDS011;26906;45.658;9.272;2023-09-12T12:41:35;8.82;;;8.00;;
41167;SDS011;26906;45.658;9.272;2023-09-12T12:44:01;11.85;;;8.07;;
41167;SDS011;26906;45.658;9.272;2023-09-12T12:46:29;10.55;;;7.55;;
41167;SDS011;26906;45.658;9.272;2023-09-12T12:48:54;28.20;;;8.93;;
41167;SDS011;26906;45.658;9.272;2023-09-12T12:51:24;21.25;;;7.75;;
41167;SDS011;26906;45.658;9.272;2023-09-12T12:54:12;21.20;;;8.07;;
41167;SDS011;26906;45.658;9.272;2023-09-12T12:56:36;7.75;;;6.80;;
41167;SDS011;26906;45.658;9.272;2023-09-12T12:59:04;8.25;;;6.03;;
41167;SDS011;26906;45.658;9.272;2023-09-12T13:01:33;23.58;;;6.65;;
41167;SDS011;26906;45.658;9.272;2023-09-12T13:04:04;8.30;;;6.50;;
41167;SDS011;26906;45.658;9.272;2023-09-12T13:06:33;8.45;;;5.68;;
41167;SDS011;26906;45.658;9.272;2023-09-12T13:09:03;9.43;;;6.32;;
41167;SDS011;26906;45.658;9.272;2023-09-12T13:11:31;12.57;;;6.90;;
41167;SDS011;26906;45.658;9.272;2023-09-12T13:14:00;7.95;;;6.68;;
41167;SDS011;26906;45.658;9.272;2023-09-12T13:16:28;13.40;;;6.90;;
41167;SDS011;26906;45.658;9.272;2023-09-12T13:18:54;9.07;;;7.00;;
41167;SDS011;26906;45.658;9.272;2023-09-12T13:21:19;9.68;;;6.30;;
41167;SDS011;26906;45.658;9.272;2023-09-12T13:23:45;9.65;;;6.13;;
41167;SDS011;26906;45.658;9.272;2023-09-12T13:26:11;10.45;;;6.75;;
41167;SDS011;26906;45.658;9.272;2023-09-12T13:28:36;9.93;;;7.28;;
41167;SDS011;26906;45.658;9.272;2023-09-12T13:31:03;9.23;;;6.35;;
41167;SDS011;26906;45.658;9.272;2023-09-12T13:33:29;7.55;;;5.82;;
41167;SDS011;26906;45.658;9.272;2023-09-12T13:35:55;10.57;;;6.97;;
41167;SDS011;26906;45.658;9.272;2023-09-12T13:38:20;11.77;;;6.45;;
41167;SDS011;26906;45.658;9.272;2023-09-12T13:40:48;7.22;;;5.97;;
41167;SDS011;26906;45.658;9.272;2023-09-12T13:43:14;7.18;;;6.50;;
41167;SDS011;26906;45.658;9.272;2023-09-12T13:45:40;7.45;;;6.07;;
41167;SDS011;26906;45.658;9.272;2023-09-12T13:48:06;11.60;;;6.40;;
41167;SDS011;26906;45.658;9.272;2023-09-12T13:50:33;8.95;;;5.55;;
41167;SDS011;26906;45.658;9.272;2023-09-12T13:53:00;8.55;;;5.70;;
41167;SDS011;26906;45.658;9.272;2023-09-12T13:55:32;8.05;;;4.85;;
41167;SDS011;26906;45.658;9.272;2023-09-12T13:58:00;9.48;;;5.63;;
41167;SDS011;26906;45.658;9.272;2023-09-12T14:00:27;6.47;;;5.40;;
41167;SDS011;26906;45.658;9.272;2023-09-12T14:02:53;6.53;;;5.57;;
41167;SDS011;26906;45.658;9.272;2023-09-12T14:05:18;6.30;;;5.70;;
41167;SDS011;26906;45.658;9.272;2023-09-12T14:07:44;9.88;;;5.78;;
41167;SDS011;26906;45.658;9.272;2023-09-12T14:10:10;10.32;;;5.68;;
41167;SDS011;26906;45.658;9.272;2023-09-12T14:12:35;7.70;;;6.10;;
41167;SDS011;26906;45.658;9.272;2023-09-12T14:15:01;15.50;;;6.22;;
41167;SDS011;26906;45.658;9.272;2023-09-12T14:17:28;10.40;;;6.28;;
41167;SDS011;26906;45.658;9.272;2023-09-12T14:19:54;11.35;;;6.40;;
41167;SDS011;26906;45.658;9.272;2023-09-12T14:22:20;10.00;;;6.30;;
41167;SDS011;26906;45.658;9.272;2023-09-12T14:24:46;12.10;;;6.18;;
41167;SDS011;26906;45.658;9.272;2023-09-12T14:27:13;21.23;;;6.68;;
41167;SDS011;26906;45.658;9.272;2023-09-12T14:29:40;14.25;;;6.40;;
41167;SDS011;26906;45.658;9.272;2023-09-12T14:32:13;10.77;;;6.05;;
41167;SDS011;26906;45.658;9.272;2023-09-12T14:34:41;9.30;;;6.25;;
41167;SDS011;26906;45.658;9.272;2023-09-12T14:37:06;8.27;;;6.38;;
41167;SDS011;26906;45.658;9.272;2023-09-12T14:39:33;9.60;;;6.13;;
41167;SDS011;26906;45.658;9.272;2023-09-12T14:42:00;7.40;;;5.50;;
41167;SDS011;26906;45.658;9.272;2023-09-12T14:44:27;10.10;;;5.85;;
41167;SDS011;26906;45.658;9.272;2023-09-12T14:46:53;8.18;;;5.97;;
41167;SDS011;26906;45.658;9.272;2023-09-12T14:49:21;9.10;;;5.75;;
41167;SDS011;26906;45.658;9.272;2023-09-12T14:51:48;7.75;;;5.60;;
41167;SDS011;26906;45.658;9.272;2023-09-12T14:54:13;8.40;;;5.40;;
41167;SDS011;26906;45.658;9.272;2023-09-12T14:56:39;6.55;;;5.65;;
41167;SDS011;26906;45.658;9.272;2023-09-12T14:59:07;7.82;;;5.43;;
41167;SDS011;26906;45.658;9.272;2023-09-12T15:01:33;7.20;;;5.38;;
41167;SDS011;26906;45.658;9.272;2023-09-12T15:04:00;12.75;;;5.95;;
41167;SDS011;26906;45.658;9.272;2023-09-12T15:06:26;9.57;;;6.82;;
41167;SDS011;26906;45.658;9.272;2023-09-12T15:08:52;9.25;;;5.70;;
41167;SDS011;26906;45.658;9.272;2023-09-12T15:11:18;11.20;;;6.18;;
41167;SDS011;26906;45.658;9.272;2023-09-12T15:13:44;7.43;;;5.45;;
41167;SDS011;26906;45.658;9.272;2023-09-12T15:16:11;7.03;;;5.97;;
41167;SDS011;26906;45.658;9.272;2023-09-12T15:18:37;11.05;;;5.40;;
41167;SDS011;26906;45.658;9.272;2023-09-12T15:21:06;7.32;;;5.30;;
41167;SDS011;26906;45.658;9.272;2023-09-12T15:23:32;6.13;;;5.30;;
41167;SDS011;26906;45.658;9.272;2023-09-12T15:25:58;13.45;;;6.30;;
41167;SDS011;26906;45.658;9.272;2023-09-12T15:28:25;7.75;;;5.43;;
41167;SDS011;26906;45.658;9.272;2023-09-12T15:30:52;7.75;;;4.85;;
41167;SDS011;26906;45.658;9.272;2023-09-12T15:33:19;11.25;;;6.65;;
41167;SDS011;26906;45.658;9.272;2023-09-12T15:35:45;9.63;;;5.72;;
41167;SDS011;26906;45.658;9.272;2023-09-12T15:38:10;10.45;;;5.70;;
41167;SDS011;26906;45.658;9.272;2023-09-12T15:40:43;6.18;;;5.45;;
41167;SDS011;26906;45.658;9.272;2023-09-12T15:43:09;8.98;;;5.45;;
41167;SDS011;26906;45.658;9.272;2023-09-12T15:45:35;9.23;;;5.38;;
41167;SDS011;26906;45.658;9.272;2023-09-12T15:48:00;6.40;;;5.05;;
41167;SDS011;26906;45.658;9.272;2023-09-12T15:50:26;7.00;;;5.65;;
41167;SDS011;26906;45.658;9.272;2023-09-12T15:52:52;7.93;;;5.85;;
41167;SDS011;26906;45.658;9.272;2023-09-12T15:55:17;12.00;;;5.63;;
41167;SDS011;26906;45.658;9.272;2023-09-12T15:57:43;11.45;;;5.72;;
41167;SDS011;26906;45.658;9.272;2023-09-12T16:00:09;8.40;;;6.07;;
41167;SDS011;26906;45.658;9.272;2023-09-12T16:02:40;9.75;;;6.45;;
41167;SDS011;26906;45.658;9.272;2023-09-12T16:05:07;7.18;;;5.68;;
41167;SDS011;26906;45.658;9.272;2023-09-12T16:07:34;8.40;;;6.00;;
41167;SDS011;26906;45.658;9.272;2023-09-12T16:10:00;8.50;;;5.75;;
41167;SDS011;26906;45.658;9.272;2023-09-12T16:12:29;6.00;;;5.50;;
41167;SDS011;26906;45.658;9.272;2023-09-12T16:14:55;11.77;;;5.93;;
41167;SDS011;26906;45.658;9.272;2023-09-12T16:17:21;8.18;;;6.35;;
41167;SDS011;26906;45.658;9.272;2023-09-12T16:19:50;9.30;;;6.40;;
41167;SDS011;26906;45.658;9.272;2023-09-12T16:22:16;9.82;;;6.10;;
41167;SDS011;26906;45.658;9.272;2023-09-12T16:24:42;10.23;;;5.60;;
41167;SDS011;26906;45.658;9.272;2023-09-12T16:27:09;8.02;;;6.05;;
41167;SDS011;26906;45.658;9.272;2023-09-12T16:29:35;6.88;;;5.80;;
41167;SDS011;26906;45.658;9.272;2023-09-12T16:32:04;6.22;;;5.63;;
41167;SDS011;26906;45.658;9.272;2023-09-12T16:34:30;7.85;;;5.97;;
41167;SDS011;26906;45.658;9.272;2023-09-12T16:36:56;9.93;;;6.10;;
41167;SDS011;26906;45.658;9.272;2023-09-12T16:39:23;8.18;;;5.90;;
41167;SDS011;26906;45.658;9.272;2023-09-12T16:41:51;6.43;;;5.82;;
41167;SDS011;26906;45.658;9.272;2023-09-12T16:44:16;6.50;;;5.80;;
41167;SDS011;26906;45.658;9.272;2023-09-12T16:46:42;6.28;;;5.60;;
41167;SDS011;26906;45.658;9.272;2023-09-12T16:49:08;11.05;;;5.90;;
41167;SDS011;26906;45.658;9.272;2023-09-12T16:51:34;7.60;;;6.05;;
41167;SDS011;26906;45.658;9.272;2023-09-12T16:54:00;11.13;;;6.45;;
41167;SDS011;26906;45.658;9.272;2023-09-12T16:56:26;13.85;;;6.32;;
41167;SDS011;26906;45.658;9.272;2023-09-12T16:58:52;11.95;;;5.97;;
41167;SDS011;26906;45.658;9.272;2023-09-12T17:01:19;9.82;;;6.25;;
41167;SDS011;26906;45.658;9.272;2023-09-12T17:03:46;8.55;;;6.43;;
41167;SDS011;26906;45.658;9.272;2023-09-12T17:06:22;13.13;;;6.63;;
41167;SDS011;26906;45.658;9.272;2023-09-12T17:08:47;14.02;;;7.70;;
41167;SDS011;26906;45.658;9.272;2023-09-12T17:11:13;7.75;;;7.05;;
41167;SDS011;26906;45.658;9.272;2023-09-12T17:13:39;8.30;;;7.22;;
41167;SDS011;26906;45.658;9.272;2023-09-12T17:16:05;11.30;;;7.07;;
41167;SDS011;26906;45.658;9.272;2023-09-12T17:18:32;12.05;;;7.28;;
41167;SDS011;26906;45.658;9.272;2023-09-12T17:21:02;11.20;;;7.15;;
41167;SDS011;26906;45.658;9.272;2023-09-12T17:23:28;16.52;;;10.23;;
41167;SDS011;26906;45.658;9.272;2023-09-12T17:25:53;10.57;;;7.82;;
41167;SDS011;26906;45.658;9.272;2023-09-12T17:28:20;9.30;;;6.63;;
41167;SDS011;26906;45.658;9.272;2023-09-12T17:30:45;9.48;;;6.18;;
41167;SDS011;26906;45.658;9.272;2023-09-12T17:33:12;7.95;;;6.20;;
41167;SDS011;26906;45.658;9.272;2023-09-12T17:35:39;9.15;;;6.40;;
41167;SDS011;26906;45.658;9.272;2023-09-12T17:38:04;11.27;;;6.93;;
41167;SDS011;26906;45.658;9.272;2023-09-12T17:40:30;12.88;;;7.32;;
41167;SDS011;26906;45.658;9.272;2023-09-12T17:42:57;12.57;;;7.03;;
41167;SDS011;26906;45.658;9.272;2023-09-12T17:45:24;11.88;;;7.05;;
41167;SDS011;26906;45.658;9.272;2023-09-12T17:47:49;11.68;;;7.32;;
41167;SDS011;26906;45.658;9.272;2023-09-12T17:50:18;12.77;;;7.55;;
41167;SDS011;26906;45.658;9.272;2023-09-12T17:52:43;9.60;;;6.80;;
41167;SDS011;26906;45.658;9.272;2023-09-12T17:55:09;11.23;;;7.30;;
41167;SDS011;26906;45.658;9.272;2023-09-12T17:57:36;8.52;;;6.97;;
41167;SDS011;26906;45.658;9.272;2023-09-12T18:00:02;14.00;;;7.82;;
41167;SDS011;26906;45.658;9.272;2023-09-12T18:02:37;13.05;;;7.60;;
41167;SDS011;26906;45.658;9.272;2023-09-12T18:05:04;12.55;;;8.07;;
41167;SDS011;26906;45.658;9.272;2023-09-12T18:07:31;17.67;;;7.05;;
41167;SDS011;26906;45.658;9.272;2023-09-12T18:09:56;12.93;;;6.97;;
41167;SDS011;26906;45.658;9.272;2023-09-12T18:12:22;11.65;;;7.47;;
41167;SDS011;26906;45.658;9.272;2023-09-12T18:14:48;12.77;;;7.30;;
41167;SDS011;26906;45.658;9.272;2023-09-12T18:17:14;15.18;;;7.15;;
41167;SDS011;26906;45.658;9.272;2023-09-12T18:19:39;12.77;;;7.15;;
41167;SDS011;26906;45.658;9.272;2023-09-12T18:22:05;16.73;;;7.72;;
41167;SDS011;26906;45.658;9.272;2023-09-12T18:24:32;10.80;;;7.15;;
41167;SDS011;26906;45.658;9.272;2023-09-12T18:26:58;12.60;;;7.30;;
41167;SDS011;26906;45.658;9.272;2023-09-12T18:29:23;13.60;;;7.43;;
41167;SDS011;26906;45.658;9.272;2023-09-12T18:31:49;9.40;;;6.80;;
41167;SDS011;26906;45.658;9.272;2023-09-12T18:34:15;8.88;;;7.20;;
41167;SDS011;26906;45.658;9.272;2023-09-12T18:36:43;8.20;;;7.40;;
41167;SDS011;26906;45.658;9.272;2023-09-12T18:39:09;13.05;;;8.32;;
41167;SDS011;26906;45.658;9.272;2023-09-12T18:41:34;10.13;;;7.53;;
41167;SDS011;26906;45.658;9.272;2023-09-12T18:44:01;11.68;;;7.53;;
41167;SDS011;26906;45.658;9.272;2023-09-12T18:46:27;10.35;;;7.95;;
41167;SDS011;26906;45.658;9.272;2023-09-12T18:48:53;12.10;;;7.65;;
41167;SDS011;26906;45.658;9.272;2023-09-12T18:51:19;11.40;;;8.60;;
41167;SDS011;26906;45.658;9.272;2023-09-12T18:53:45;11.38;;;7.90;;
41167;SDS011;26906;45.658;9.272;2023-09-12T18:56:11;12.55;;;7.70;;
41167;SDS011;26906;45.658;9.272;2023-09-12T18:58:36;10.43;;;7.10;;
41167;SDS011;26906;45.658;9.272;2023-09-12T19:01:03;10.63;;;7.45;;
41167;SDS011;26906;45.658;9.272;2023-09-12T19:03:35;10.68;;;8.27;;
41167;SDS011;26906;45.658;9.272;2023-09-12T19:06:04;12.30;;;8.57;;
41167;SDS011;26906;45.658;9.272;2023-09-12T19:08:32;9.68;;;8.35;;
41167;SDS011;26906;45.658;9.272;2023-09-12T19:11:02;14.77;;;8.38;;
41167;SDS011;26906;45.658;9.272;2023-09-12T19:13:28;13.27;;;7.43;;
41167;SDS011;26906;45.658;9.272;2023-09-12T19:15:54;11.18;;;7.70;;
41167;SDS011;26906;45.658;9.272;2023-09-12T19:18:20;14.00;;;8.35;;
41167;SDS011;26906;45.658;9.272;2023-09-12T19:20:45;11.15;;;8.32;;
41167;SDS011;26906;45.658;9.272;2023-09-12T19:23:11;9.88;;;7.80;;
41167;SDS011;26906;45.658;9.272;2023-09-12T19:25:37;11.75;;;7.18;;
41167;SDS011;26906;45.658;9.272;2023-09-12T19:28:05;8.48;;;7.10;;
41167;SDS011;26906;45.658;9.272;2023-09-12T19:30:33;8.55;;;7.10;;
41167;SDS011;26906;45.658;9.272;2023-09-12T19:33:02;9.57;;;6.97;;
41167;SDS011;26906;45.658;9.272;2023-09-12T19:35:33;8.85;;;6.82;;
41167;SDS011;26906;45.658;9.272;2023-09-12T19:37:59;13.10;;;6.85;;
41167;SDS011;26906;45.658;9.272;2023-09-12T19:40:27;10.35;;;7.00;;
41167;SDS011;26906;45.658;9.272;2023-09-12T19:42:53;9.13;;;7.07;;
41167;SDS011;26906;45.658;9.272;2023-09-12T19:45:19;8.43;;;7.60;;
41167;SDS011;26906;45.658;9.272;2023-09-12T19:47:45;7.90;;;6.65;;
41167;SDS011;26906;45.658;9.272;2023-09-12T19:50:10;10.50;;;6.78;;
41167;SDS011;26906;45.658;9.272;2023-09-12T19:52:36;9.85;;;7.13;;
41167;SDS011;26906;45.658;9.272;2023-09-12T19:55:02;7.95;;;6.10;;
41167;SDS011;26906;45.658;9.272;2023-09-12T19:57:28;8.10;;;5.32;;
41167;SDS011;26906;45.658;9.272;2023-09-12T19:59:53;6.00;;;5.20;;
41167;SDS011;26906;45.658;9.272;2023-09-12T20:02:19;7.03;;;4.55;;
41167;SDS011;26906;45.658;9.272;2023-09-12T20:04:45;5.32;;;4.70;;
